Time;durP1;ratioP1;P1;durP2;ratioP2;P2;SDS_P1;SDS_P2;PMS_P1;PMS_P2;Temp;Humidity;BMP_temperature;BMP_pressure;BME280_temperature;BME280_humidity;BME280_pressure;Samples;Min_cycle;Max_cycle;Signal;HPM_P1;HPM_P2
2023/05/17 00:00:20;;;;;;;1.10;0.77;;;;;;;13.61;83.30;101159.00;4959609;28;20034;-53
2023/05/17 00:02:45;;;;;;;0.85;0.68;;;;;;;13.55;82.89;101159.31;4981575;28;20237;-55
2023/05/17 00:05:11;;;;;;;1.98;0.70;;;;;;;13.44;82.81;101165.69;4982641;28;20041;-55
2023/05/17 00:07:36;;;;;;;1.25;0.40;;;;;;;13.54;82.65;101162.38;4986599;28;20042;-56
2023/05/17 00:10:02;;;;;;;3.20;1.17;;;;;;;13.40;82.97;101176.44;4987553;28;20060;-55
2023/05/17 00:12:27;;;;;;;0.77;0.50;;;;;;;13.28;83.58;101168.50;4985422;28;20077;-54
2023/05/17 00:14:53;;;;;;;3.22;0.65;;;;;;;13.34;83.04;101171.69;4978927;28;20049;-56
2023/05/17 00:17:18;;;;;;;0.77;0.40;;;;;;;13.31;83.56;101167.81;4985464;28;20030;-56
2023/05/17 00:19:44;;;;;;;0.95;0.43;;;;;;;13.32;83.46;101177.47;4975490;28;20034;-54
2023/05/17 00:22:10;;;;;;;0.22;0.22;;;;;;;13.02;82.59;101176.50;4980236;28;20061;-53
2023/05/17 00:24:36;;;;;;;1.02;0.60;;;;;;;13.09;82.93;101176.66;4983659;28;20053;-53
2023/05/17 00:27:01;;;;;;;0.30;0.30;;;;;;;13.17;82.28;101183.75;4983261;28;20051;-55
2023/05/17 00:29:27;;;;;;;0.68;0.65;;;;;;;13.28;81.08;101179.31;4983455;28;20049;-57
2023/05/17 00:31:54;;;;;;;0.20;0.20;;;;;;;13.18;80.88;101184.56;4957451;28;20045;-52
2023/05/17 00:34:20;;;;;;;1.20;0.63;;;;;;;13.25;79.69;101185.47;4954781;28;20088;-56
2023/05/17 00:37:06;;;;;;;2.20;1.20;;;;;;;13.05;79.75;101170.41;4983964;28;20085;-56
2023/05/17 00:39:31;;;;;;;8.40;0.80;;;;;;;12.94;80.26;101174.81;4894702;29;20612;-60
2023/05/17 00:41:57;;;;;;;4.38;0.65;;;;;;;12.86;80.89;101172.31;4893023;29;20044;-57
2023/05/17 00:44:25;;;;;;;0.20;0.20;;;;;;;12.77;80.47;101175.25;4911484;29;20047;-58
2023/05/17 00:46:50;;;;;;;7.88;0.40;;;;;;;12.71;80.78;101179.38;4914331;29;20043;-57
2023/05/17 00:49:16;;;;;;;3.58;0.52;;;;;;;12.67;81.75;101170.41;4915938;29;20076;-55
2023/05/17 00:51:43;;;;;;;0.38;0.32;;;;;;;12.61;81.15;101175.31;4905936;29;20044;-58
2023/05/17 00:54:09;;;;;;;0.52;0.35;;;;;;;12.64;80.80;101181.91;4910352;29;20115;-57
2023/05/17 00:56:34;;;;;;;1.58;0.70;;;;;;;12.74;79.95;101184.06;4909583;29;20123;-56
2023/05/17 00:59:03;;;;;;;9.48;0.73;;;;;;;12.69;80.50;101181.66;4910922;29;20028;-57
2023/05/17 01:01:29;;;;;;;1.35;1.15;;;;;;;12.66;81.06;101190.44;4902501;29;20740;-57
2023/05/17 01:03:55;;;;;;;1.00;0.30;;;;;;;12.74;80.00;101186.75;4892003;29;20048;-56
2023/05/17 01:06:21;;;;;;;0.47;0.30;;;;;;;12.74;80.19;101183.28;4906520;29;20040;-57
2023/05/17 01:08:47;;;;;;;1.48;0.82;;;;;;;12.78;80.17;101187.59;4913292;29;20054;-57
2023/05/17 01:11:18;;;;;;;0.95;0.47;;;;;;;12.79;80.27;101188.41;4910450;29;20107;-59
2023/05/17 01:13:53;;;;;;;2.78;0.57;;;;;;;12.95;78.62;101186.41;4913955;29;20578;-58
2023/05/17 01:16:29;;;;;;;0.43;0.30;;;;;;;12.87;79.70;101185.50;4938683;28;20047;-59
2023/05/17 01:19:04;;;;;;;0.63;0.63;;;;;;;12.93;79.92;101194.09;4974686;28;20396;-58
2023/05/17 01:22:08;;;;;;;0.95;0.60;;;;;;;12.90;79.61;101200.19;4993697;28;20342;-56
2023/05/17 01:24:49;;;;;;;4.68;0.32;;;;;;;12.88;80.59;101207.88;4964230;28;20043;-59
2023/05/17 01:27:16;;;;;;;5.37;0.20;;;;;;;13.01;80.59;101212.00;4972646;28;20026;-58
2023/05/17 01:29:43;;;;;;;1.42;0.77;;;;;;;13.07;79.43;101213.31;4980202;28;20057;-58
2023/05/17 01:32:10;;;;;;;3.17;1.00;;;;;;;13.00;79.54;101207.75;4991985;28;20038;-58
2023/05/17 01:34:35;;;;;;;0.47;0.35;;;;;;;12.98;79.81;101205.41;4966254;28;20031;-58
2023/05/17 01:37:02;;;;;;;1.98;0.63;;;;;;;13.05;79.35;101212.88;4987334;28;20034;-58
2023/05/17 01:39:28;;;;;;;0.20;0.20;;;;;;;12.94;79.23;101209.16;4979100;28;20082;-58
2023/05/17 01:42:06;;;;;;;0.88;0.47;;;;;;;12.86;79.87;101205.53;4974888;28;20640;-53
2023/05/17 01:44:46;;;;;;;0.60;0.60;;;;;;;12.83;79.88;101208.97;4985800;28;20118;-58
2023/05/17 01:47:35;;;;;;;0.90;0.40;;;;;;;12.75;80.26;101209.97;4989860;28;20042;-55
2023/05/17 01:50:04;;;;;;;0.50;0.40;;;;;;;12.98;78.87;101216.22;4979049;28;20038;-53
2023/05/17 01:52:51;;;;;;;2.40;1.00;;;;;;;12.79;79.14;101218.13;4993788;28;20121;-57
2023/05/17 01:55:43;;;;;;;1.70;0.52;;;;;;;12.77;79.41;101228.50;4989820;28;20472;-57
2023/05/17 01:58:11;;;;;;;1.35;0.63;;;;;;;12.83;78.28;101222.47;4961855;28;20060;-57
2023/05/17 02:00:40;;;;;;;0.68;0.50;;;;;;;12.67;79.34;101224.44;4971183;28;20070;-58
2023/05/17 02:03:05;;;;;;;2.10;0.52;;;;;;;12.72;78.32;101220.69;4982871;28;20062;-58
2023/05/17 02:05:31;;;;;;;1.65;0.60;;;;;;;12.78;77.52;101230.06;4966533;28;20053;-57
2023/05/17 02:07:56;;;;;;;5.95;0.88;;;;;;;12.70;77.92;101223.72;4991925;28;20030;-60
2023/05/17 02:10:22;;;;;;;0.30;0.30;;;;;;;12.61;78.06;101226.66;4981965;28;20496;-58
2023/05/17 02:12:47;;;;;;;0.38;0.38;;;;;;;12.45;77.75;101225.91;4992975;28;20043;-57
2023/05/17 02:15:15;;;;;;;0.45;0.45;;;;;;;12.46;78.11;101232.09;4965438;28;20441;-58
2023/05/17 02:17:40;;;;;;;5.07;0.30;;;;;;;12.35;78.42;101237.25;4983850;28;20046;-59
2023/05/17 02:20:07;;;;;;;0.30;0.30;;;;;;;12.41;78.36;101225.06;4984959;28;20033;-58
2023/05/17 02:22:33;;;;;;;0.10;0.10;;;;;;;12.37;77.42;101226.88;4977523;28;20058;-56
2023/05/17 02:24:58;;;;;;;0.95;0.32;;;;;;;12.23;78.02;101234.66;4952362;28;20073;-58
2023/05/17 02:27:24;;;;;;;1.27;0.50;;;;;;;12.10;77.95;101235.16;4991303;28;20034;-58
2023/05/17 02:29:49;;;;;;;0.20;0.20;;;;;;;12.15;78.35;101240.25;4972720;28;20077;-58
2023/05/17 02:32:15;;;;;;;0.30;0.30;;;;;;;12.17;78.39;101244.19;4982948;28;20026;-56
2023/05/17 02:34:40;;;;;;;0.38;0.38;;;;;;;12.07;78.29;101250.13;4985071;28;20457;-58
2023/05/17 02:37:06;;;;;;;0.35;0.32;;;;;;;12.20;77.35;101248.09;4975026;28;20034;-57
2023/05/17 02:39:32;;;;;;;0.13;0.13;;;;;;;12.13;77.56;101256.81;4992444;28;20030;-54
2023/05/17 02:42:18;;;;;;;0.20;0.20;;;;;;;12.06;76.99;101253.94;4988905;28;20064;-56
2023/05/17 02:44:44;;;;;;;1.15;0.50;;;;;;;12.08;76.52;101267.88;4910884;29;20040;-59
2023/05/17 02:47:09;;;;;;;0.30;0.30;;;;;;;11.99;76.93;101258.38;4902755;29;20419;-58
2023/05/17 02:49:35;;;;;;;0.20;0.20;;;;;;;11.93;76.46;101268.66;4885110;29;20047;-57
2023/05/17 02:52:01;;;;;;;0.20;0.20;;;;;;;11.84;77.31;101269.97;4911034;29;20024;-54
2023/05/17 02:54:27;;;;;;;0.85;0.30;;;;;;;11.84;77.20;101272.66;4890633;29;20074;-57
2023/05/17 02:56:52;;;;;;;0.30;0.20;;;;;;;11.77;76.92;101279.44;4907489;29;20088;-56
2023/05/17 02:59:18;;;;;;;0.98;0.22;;;;;;;11.72;77.13;101279.72;4890086;29;20028;-58
2023/05/17 03:01:46;;;;;;;2.28;0.50;;;;;;;11.78;76.64;101274.84;4909331;29;20068;-58
2023/05/17 03:04:11;;;;;;;0.20;0.20;;;;;;;11.71;76.88;101280.06;4905208;29;20075;-59
2023/05/17 03:06:38;;;;;;;0.30;0.30;;;;;;;11.71;76.16;101278.13;4890523;29;20035;-57
2023/05/17 03:09:03;;;;;;;0.68;0.30;;;;;;;11.81;75.73;101284.94;4908015;29;20066;-55
2023/05/17 03:11:31;;;;;;;1.33;0.28;;;;;;;11.74;75.13;101290.94;4892990;29;20048;-58
2023/05/17 03:13:57;;;;;;;0.10;0.10;;;;;;;11.77;75.15;101300.25;4911055;29;20475;-56
2023/05/17 03:16:26;;;;;;;0.20;0.20;;;;;;;11.66;75.31;101296.50;4910524;29;20144;-58
2023/05/17 03:18:51;;;;;;;0.25;0.25;;;;;;;11.74;73.69;101303.66;4911334;29;20044;-57
2023/05/17 03:21:17;;;;;;;0.20;0.20;;;;;;;11.64;74.40;101301.41;4931230;28;20046;-58
2023/05/17 03:23:42;;;;;;;0.40;0.40;;;;;;;11.55;75.31;101308.88;4972726;28;20516;-56
2023/05/17 03:26:08;;;;;;;1.38;1.20;;;;;;;11.40;75.25;101307.69;4970085;28;20022;-56
2023/05/17 03:28:40;;;;;;;1.70;1.15;;;;;;;11.44;75.55;101305.88;4972999;28;20140;-56
2023/05/17 03:31:06;;;;;;;0.10;0.10;;;;;;;11.41;75.53;101311.97;4949501;28;20026;-56
2023/05/17 03:33:32;;;;;;;1.00;0.50;;;;;;;11.41;75.12;101306.59;4951150;28;20061;-58
2023/05/17 03:35:59;;;;;;;1.13;0.65;;;;;;;11.39;74.88;101316.16;4962169;28;20113;-58
2023/05/17 03:38:24;;;;;;;0.50;0.30;;;;;;;11.28;75.23;101317.78;4965890;28;20165;-58
2023/05/17 03:40:52;;;;;;;0.43;0.22;;;;;;;11.31;75.34;101320.56;4947680;28;20031;-57
2023/05/17 03:43:18;;;;;;;0.30;0.30;;;;;;;11.26;75.89;101322.72;4979418;28;20393;-58
2023/05/17 03:45:45;;;;;;;4.13;0.32;;;;;;;11.21;75.70;101320.25;4957858;28;20034;-57
2023/05/17 03:48:11;;;;;;;0.35;0.35;;;;;;;11.18;76.30;101327.13;4962580;28;20026;-57
2023/05/17 03:50:58;;;;;;;2.65;0.30;;;;;;;11.20;76.29;101338.34;4963497;28;20575;-56
2023/05/17 03:53:26;;;;;;;1.48;0.28;;;;;;;11.27;75.84;101341.25;4890553;29;20520;-57
2023/05/17 03:55:52;;;;;;;0.43;0.10;;;;;;;11.32;75.34;101342.91;4888582;29;20041;-59
2023/05/17 03:58:17;;;;;;;0.20;0.20;;;;;;;11.36;75.58;101341.13;4872530;29;20543;-55
2023/05/17 04:00:43;;;;;;;0.35;0.15;;;;;;;11.36;74.84;101347.28;4884330;29;20073;-57
2023/05/17 04:03:13;;;;;;;0.20;0.20;;;;;;;11.25;75.25;101350.78;4884178;29;20033;-56
2023/05/17 04:05:45;;;;;;;3.92;0.45;;;;;;;11.41;74.38;101352.44;4875997;29;20103;-57
2023/05/17 04:08:11;;;;;;;1.83;0.43;;;;;;;11.50;73.19;101354.97;4874972;29;20060;-56
2023/05/17 04:10:40;;;;;;;0.47;0.20;;;;;;;11.41;73.69;101357.84;4887254;29;20072;-56
2023/05/17 04:13:10;;;;;;;0.32;0.32;;;;;;;11.38;73.37;101363.91;4890904;29;20104;-56
2023/05/17 04:15:36;;;;;;;0.43;0.43;;;;;;;11.36;74.07;101355.34;4871980;29;20624;-56
2023/05/17 04:18:03;;;;;;;6.55;0.43;;;;;;;11.50;73.94;101360.38;4886708;29;20059;-56
2023/05/17 04:20:29;;;;;;;0.20;0.20;;;;;;;11.57;72.63;101368.69;4884049;29;20032;-56
2023/05/17 04:22:55;;;;;;;1.95;0.57;;;;;;;11.59;72.62;101369.88;4889936;29;20097;-55
2023/05/17 04:25:23;;;;;;;0.68;0.40;;;;;;;11.56;72.54;101364.41;4885025;29;20104;-56
2023/05/17 04:27:49;;;;;;;0.85;0.45;;;;;;;11.39;72.59;101368.19;4890197;29;20032;-55
2023/05/17 04:30:15;;;;;;;0.30;0.30;;;;;;;11.44;73.47;101367.91;4920632;28;20044;-55
2023/05/17 04:32:41;;;;;;;1.13;0.55;;;;;;;11.46;73.46;101378.34;4967456;28;20050;-55
2023/05/17 04:35:07;;;;;;;0.40;0.30;;;;;;;11.59;72.78;101377.22;4968189;28;20042;-52
2023/05/17 04:37:33;;;;;;;0.40;0.30;;;;;;;11.44;72.53;101386.81;4962340;28;20031;-58
2023/05/17 04:40:07;;;;;;;0.45;0.15;;;;;;;11.44;72.33;101396.81;4945312;28;20273;-57
2023/05/17 04:42:33;;;;;;;0.25;0.25;;;;;;;11.53;72.68;101403.66;4985526;28;20466;-56
2023/05/17 04:44:59;;;;;;;0.20;0.20;;;;;;;11.51;72.08;101415.91;4968969;28;20035;-57
2023/05/17 04:47:26;;;;;;;0.30;0.30;;;;;;;11.65;71.32;101417.09;4945333;28;20038;-57
2023/05/17 04:49:52;;;;;;;0.20;0.20;;;;;;;11.62;70.80;101416.97;4977763;28;20374;-56
2023/05/17 04:52:17;;;;;;;0.17;0.17;;;;;;;11.66;71.32;101417.91;4970089;28;20033;-57
2023/05/17 04:54:44;;;;;;;4.47;0.75;;;;;;;11.80;71.19;101423.69;4946229;28;20038;-57
2023/05/17 04:57:10;;;;;;;1.35;0.77;;;;;;;12.03;70.08;101416.63;4966847;28;20045;-56
2023/05/17 04:59:56;;;;;;;0.20;0.20;;;;;;;12.18;68.92;101420.47;4975086;28;20073;-63
2023/05/17 05:02:21;;;;;;;0.90;0.43;;;;;;;12.07;67.43;101420.19;4961933;28;20478;-57
2023/05/17 05:04:47;;;;;;;0.30;0.30;;;;;;;12.05;67.81;101433.25;4960297;28;20391;-58
2023/05/17 05:07:13;;;;;;;2.33;0.25;;;;;;;12.13;68.04;101442.34;4957528;28;20037;-58
2023/05/17 05:09:39;;;;;;;0.25;0.17;;;;;;;12.17;67.36;101438.59;4971263;28;20030;-58
2023/05/17 05:12:07;;;;;;;0.10;0.10;;;;;;;12.20;66.29;101443.31;4961820;28;20022;-59
2023/05/17 05:14:34;;;;;;;0.10;0.10;;;;;;;12.24;66.67;101449.59;4968267;28;20031;-57
2023/05/17 05:17:00;;;;;;;1.10;0.60;;;;;;;12.19;66.69;101447.16;4963519;28;20038;-58
2023/05/17 05:19:26;;;;;;;0.10;0.10;;;;;;;12.18;66.19;101450.97;4961515;28;20035;-57
2023/05/17 05:21:53;;;;;;;0.80;0.30;;;;;;;12.20;66.76;101461.41;4955934;28;20037;-56
2023/05/17 05:24:18;;;;;;;0.10;0.10;;;;;;;12.48;64.41;101465.66;4964973;28;20031;-58
2023/05/17 05:26:45;;;;;;;3.50;0.43;;;;;;;12.47;64.50;101464.06;4962635;28;20022;-57
2023/05/17 05:29:11;;;;;;;0.08;0.08;;;;;;;12.45;65.50;101465.56;4967014;28;20041;-55
2023/05/17 05:31:37;;;;;;;0.25;0.20;;;;;;;12.57;65.80;101468.19;4961944;28;20030;-56
2023/05/17 05:34:04;;;;;;;6.05;0.20;;;;;;;12.79;64.71;101467.59;4953645;28;20038;-59
2023/05/17 05:36:30;;;;;;;0.80;0.22;;;;;;;12.93;64.47;101477.97;4957683;28;20018;-57
2023/05/17 05:38:57;;;;;;;0.40;0.30;;;;;;;13.20;63.38;101480.56;4964652;28;20513;-57
2023/05/17 05:41:23;;;;;;;0.77;0.20;;;;;;;13.65;61.68;101488.13;4960513;28;20026;-57
2023/05/17 05:43:49;;;;;;;0.70;0.30;;;;;;;13.73;60.77;101494.47;4946044;28;20034;-58
2023/05/17 05:46:14;;;;;;;0.52;0.43;;;;;;;13.96;62.01;101493.44;4956830;28;20022;-57
2023/05/17 05:48:43;;;;;;;0.17;0.10;;;;;;;14.22;61.42;101492.78;4961578;28;20030;-57
2023/05/17 05:51:09;;;;;;;2.92;0.25;;;;;;;14.45;59.71;101493.63;4959217;28;20034;-57
2023/05/17 05:53:38;;;;;;;2.13;0.47;;;;;;;14.58;57.71;101492.31;4970205;28;20093;-54
2023/05/17 05:56:04;;;;;;;1.15;0.43;;;;;;;14.42;57.77;101503.25;4980885;28;20038;-58
2023/05/17 05:58:30;;;;;;;1.95;0.38;;;;;;;14.33;57.61;101515.47;4964248;28;20034;-58
2023/05/17 06:00:56;;;;;;;1.70;0.47;;;;;;;14.29;56.68;101507.28;4969218;28;20026;-56
2023/05/17 06:03:23;;;;;;;0.10;0.10;;;;;;;14.16;56.64;101513.97;4982736;28;20022;-58
2023/05/17 06:05:49;;;;;;;1.48;1.30;;;;;;;13.98;57.17;101510.09;4983047;28;20038;-58
2023/05/17 06:08:17;;;;;;;2.75;0.38;;;;;;;13.96;56.20;101517.81;4959593;28;20077;-55
2023/05/17 06:10:43;;;;;;;7.10;0.45;;;;;;;13.87;55.83;101502.91;4958119;28;20491;-56
2023/05/17 06:13:08;;;;;;;0.10;0.00;;;;;;;13.70;55.72;101524.97;4972486;28;20030;-55
2023/05/17 06:15:34;;;;;;;0.28;0.28;;;;;;;13.51;56.33;101534.63;4971552;28;20031;-58
2023/05/17 06:18:00;;;;;;;0.45;0.45;;;;;;;13.52;57.20;101535.41;4971886;28;20034;-57
2023/05/17 06:20:25;;;;;;;1.85;0.30;;;;;;;13.56;57.73;101536.28;4983590;28;20566;-56
2023/05/17 06:22:51;;;;;;;0.00;0.00;;;;;;;13.68;57.89;101540.78;4978654;28;20034;-56
2023/05/17 06:25:17;;;;;;;0.38;0.20;;;;;;;13.80;57.33;101538.72;4968184;28;20070;-58
2023/05/17 06:27:42;;;;;;;1.75;0.93;;;;;;;13.77;56.71;101536.75;4980546;28;20042;-58
2023/05/17 06:30:09;;;;;;;1.25;0.43;;;;;;;13.76;57.18;101548.72;4974415;28;20181;-58
2023/05/17 06:32:35;;;;;;;0.55;0.55;;;;;;;13.86;56.30;101556.28;4980537;28;20038;-57
2023/05/17 06:35:21;;;;;;;0.10;0.10;;;;;;;13.85;56.50;101565.53;4987287;28;20030;-58
2023/05/17 06:37:46;;;;;;;0.20;0.20;;;;;;;13.91;55.48;101553.31;4909537;29;20052;-57
2023/05/17 06:40:12;;;;;;;0.13;0.13;;;;;;;14.13;55.71;101566.13;4895795;29;20048;-58
2023/05/17 06:42:37;;;;;;;0.22;0.17;;;;;;;14.21;55.85;101570.56;4910096;29;20277;-56
2023/05/17 06:45:03;;;;;;;1.42;0.22;;;;;;;14.17;55.58;101575.13;4912900;29;20446;-57
2023/05/17 06:47:29;;;;;;;3.83;0.22;;;;;;;14.25;55.13;101584.16;4911953;29;20395;-56
2023/05/17 06:49:54;;;;;;;0.30;0.30;;;;;;;14.24;54.89;101596.97;4906782;29;20744;-57
2023/05/17 06:52:20;;;;;;;0.38;0.15;;;;;;;14.24;55.23;101583.41;4904978;29;20043;-58
2023/05/17 06:54:45;;;;;;;0.10;0.10;;;;;;;14.42;53.96;101591.91;4894650;29;20135;-55
2023/05/17 06:57:11;;;;;;;0.10;0.10;;;;;;;14.52;53.52;101607.59;4904465;29;20079;-56
2023/05/17 06:59:36;;;;;;;0.10;0.10;;;;;;;14.50;52.64;101609.13;4905101;29;20048;-59
2023/05/17 07:02:02;;;;;;;0.13;0.13;;;;;;;14.48;52.53;101596.69;4908036;29;20471;-56
2023/05/17 07:04:27;;;;;;;0.20;0.20;;;;;;;14.39;52.40;101596.13;4907224;29;20074;-57
2023/05/17 07:06:55;;;;;;;0.25;0.25;;;;;;;14.75;51.96;101611.16;4910479;29;20107;-55
2023/05/17 07:09:20;;;;;;;0.10;0.10;;;;;;;14.77;52.13;101616.22;4912928;29;20096;-56
2023/05/17 07:11:46;;;;;;;0.52;0.10;;;;;;;14.90;52.00;101617.63;4903321;29;20029;-58
2023/05/17 07:14:12;;;;;;;1.08;0.32;;;;;;;15.01;51.79;101616.69;4917499;28;20051;-56
2023/05/17 07:16:38;;;;;;;1.75;0.20;;;;;;;15.23;51.23;101612.41;4974736;28;20037;-57
2023/05/17 07:19:03;;;;;;;0.70;0.47;;;;;;;15.46;50.37;101613.22;4978776;28;20053;-56
2023/05/17 07:21:31;;;;;;;1.00;0.20;;;;;;;15.68;48.71;101617.81;4974671;28;20498;-56
2023/05/17 07:23:57;;;;;;;0.45;0.00;;;;;;;15.66;48.87;101628.25;4987438;28;20521;-52
2023/05/17 07:26:23;;;;;;;0.15;0.10;;;;;;;15.91;48.81;101623.97;4965990;28;20042;-58
2023/05/17 07:28:49;;;;;;;4.38;0.10;;;;;;;16.22;47.61;101620.91;4982693;28;20034;-57
2023/05/17 07:31:15;;;;;;;0.15;0.10;;;;;;;16.23;47.16;101625.19;4984762;28;20026;-57
2023/05/17 07:33:41;;;;;;;0.70;0.17;;;;;;;16.39;45.64;101627.72;4983950;28;20097;-56
2023/05/17 07:36:07;;;;;;;0.93;0.30;;;;;;;16.15;45.83;101641.78;4967435;28;20039;-57
2023/05/17 07:38:35;;;;;;;1.35;0.50;;;;;;;16.12;46.25;101647.97;4977736;28;20033;-57
2023/05/17 07:41:02;;;;;;;0.30;0.30;;;;;;;15.87;46.84;101644.88;4976011;28;20036;-58
2023/05/17 07:43:27;;;;;;;0.10;0.10;;;;;;;15.76;47.29;101646.66;4975478;28;20113;-56
2023/05/17 07:45:53;;;;;;;0.10;0.10;;;;;;;15.75;47.95;101638.88;4976165;28;20121;-58
2023/05/17 07:48:18;;;;;;;2.35;0.30;;;;;;;15.78;47.60;101655.22;4975597;28;20031;-57
2023/05/17 07:50:45;;;;;;;0.00;0.00;;;;;;;15.59;47.74;101646.38;4970573;28;20035;-58
2023/05/17 07:53:11;;;;;;;0.10;0.10;;;;;;;15.59;48.16;101651.78;4976191;28;20501;-58
2023/05/17 07:55:57;;;;;;;0.10;0.10;;;;;;;15.67;47.80;101653.47;4974114;28;20089;-55
2023/05/17 07:58:22;;;;;;;0.00;0.00;;;;;;;15.76;46.42;101656.72;4901753;29;20044;-58
2023/05/17 08:00:48;;;;;;;0.10;0.10;;;;;;;15.72;47.40;101655.88;4896231;29;20132;-57
2023/05/17 08:03:13;;;;;;;2.47;0.45;;;;;;;15.87;47.41;101665.84;4901921;29;20455;-55
2023/05/17 08:05:39;;;;;;;0.20;0.20;;;;;;;16.31;45.68;101683.16;4902058;29;20060;-57
2023/05/17 08:08:05;;;;;;;0.90;0.30;;;;;;;16.36;45.87;101690.19;4895372;29;20125;-56
2023/05/17 08:10:34;;;;;;;0.00;0.00;;;;;;;16.55;45.77;101676.53;4879297;29;20155;-56
2023/05/17 08:13:05;;;;;;;0.75;0.75;;;;;;;16.70;46.58;101668.16;4899268;29;20048;-57
2023/05/17 08:15:30;;;;;;;1.23;0.40;;;;;;;16.92;45.45;101680.84;4903710;29;20052;-58
2023/05/17 08:17:56;;;;;;;3.30;0.55;;;;;;;16.91;45.24;101676.56;4898604;29;20188;-57
2023/05/17 08:20:21;;;;;;;0.10;0.00;;;;;;;17.22;44.11;101685.44;4901202;29;20455;-57
2023/05/17 08:22:47;;;;;;;0.10;0.10;;;;;;;17.30;45.05;101685.13;4891412;29;20453;-57
2023/05/17 08:25:12;;;;;;;0.50;0.10;;;;;;;17.69;45.19;101686.28;4902782;29;20184;-58
2023/05/17 08:27:38;;;;;;;1.35;0.10;;;;;;;17.87;43.54;101680.97;4892201;29;20074;-57
2023/05/17 08:30:04;;;;;;;0.00;0.00;;;;;;;17.69;42.71;101683.53;4894935;29;21107;-58
2023/05/17 08:32:30;;;;;;;0.95;0.43;;;;;;;17.27;43.98;101695.97;4878182;29;20040;-57
2023/05/17 08:34:56;;;;;;;0.05;0.05;;;;;;;17.14;45.38;101695.47;4922541;28;20062;-57
2023/05/17 08:37:22;;;;;;;0.00;0.00;;;;;;;17.07;45.83;101698.88;4981353;28;20066;-57
2023/05/17 08:39:48;;;;;;;0.82;0.30;;;;;;;16.98;46.16;101695.69;4958149;28;20067;-58
2023/05/17 08:42:19;;;;;;;0.10;0.10;;;;;;;17.14;46.13;101695.47;4979272;28;20117;-57
2023/05/17 08:44:44;;;;;;;0.40;0.35;;;;;;;17.03;46.56;101700.78;4978364;28;20042;-58
2023/05/17 08:47:11;;;;;;;0.10;0.10;;;;;;;16.91;45.71;101709.22;4986208;28;20349;-57
2023/05/17 08:49:37;;;;;;;0.00;0.00;;;;;;;16.94;46.82;101704.97;4980876;28;20496;-57
2023/05/17 08:52:08;;;;;;;0.28;0.28;;;;;;;17.11;45.67;101709.84;4961413;28;20038;-54
2023/05/17 08:54:35;;;;;;;;;;;;;;;17.21;44.95;101714.59;4981687;28;20061;-56
2023/05/17 08:57:03;;;;;;;0.30;0.20;;;;;;;17.34;44.79;101726.00;4969147;28;19914;-56
2023/05/17 08:59:32;;;;;;;0.10;0.10;;;;;;;17.30;44.45;101725.19;4977828;28;20026;-54
2023/05/17 09:01:59;;;;;;;0.10;0.10;;;;;;;17.36;44.39;101732.66;4983857;28;20370;-56
2023/05/17 09:04:45;;;;;;;0.28;0.20;;;;;;;17.26;44.43;101722.44;4964959;28;20486;-57
2023/05/17 09:07:11;;;;;;;0.15;0.15;;;;;;;17.41;45.38;101715.19;4957732;23;20052;-56
2023/05/17 09:09:36;;;;;;;0.47;0.30;;;;;;;17.63;45.09;101717.78;4971700;28;20050;-57
2023/05/17 09:12:03;;;;;;;0.10;0.10;;;;;;;17.93;45.39;101721.13;4996404;28;20046;-56
2023/05/17 09:14:34;;;;;;;0.28;0.17;;;;;;;18.32;42.94;101723.31;4998325;28;20034;-55
2023/05/17 09:17:00;;;;;;;;;;;;;;;18.54;42.28;101725.06;5019811;23;20047;-55
2023/05/17 09:19:25;;;;;;;0.68;0.22;;;;;;;18.43;42.12;101714.06;4965409;28;19918;-58
2023/05/17 09:21:53;;;;;;;0.73;0.30;;;;;;;18.27;43.06;101713.56;4959713;28;20026;-58
2023/05/17 09:24:26;;;;;;;0.15;0.03;;;;;;;18.34;43.28;101726.47;4949498;28;20035;-57
2023/05/17 09:26:52;;;;;;;0.40;0.40;;;;;;;18.42;43.06;101733.53;4951336;28;20039;-56
2023/05/17 09:29:17;;;;;;;0.85;0.35;;;;;;;18.17;43.46;101721.69;4970746;28;20613;-55
2023/05/17 09:31:43;;;;;;;0.40;0.20;;;;;;;18.23;44.63;101725.63;4973951;28;20057;-57
2023/05/17 09:34:09;;;;;;;0.80;0.22;;;;;;;18.37;43.09;101729.19;4952092;28;20034;-55
2023/05/17 09:36:37;;;;;;;0.30;0.05;;;;;;;18.41;42.60;101721.81;4959801;28;20030;-56
2023/05/17 09:39:04;;;;;;;1.13;0.32;;;;;;;18.32;43.13;101734.25;4969894;28;20038;-56
2023/05/17 09:41:41;;;;;;;0.47;0.47;;;;;;;18.53;43.72;101723.47;4955145;28;20535;-58
2023/05/17 09:44:08;;;;;;;0.30;0.30;;;;;;;18.74;43.19;101734.50;4951797;28;20066;-56
2023/05/17 09:46:35;;;;;;;0.40;0.28;;;;;;;18.91;42.14;101733.81;4957033;28;20106;-59
2023/05/17 09:49:05;;;;;;;2.63;0.10;;;;;;;18.93;42.22;101734.16;4968077;28;20042;-57
2023/05/17 09:51:38;;;;;;;0.40;0.17;;;;;;;18.80;43.36;101738.41;4947148;28;20085;-55
2023/05/17 09:54:05;;;;;;;0.13;0.13;;;;;;;18.84;43.96;101750.13;4973331;28;20466;-58
2023/05/17 09:56:32;;;;;;;0.30;0.05;;;;;;;18.75;43.43;101738.78;4968955;28;20067;-57
2023/05/17 09:59:00;;;;;;;0.30;0.15;;;;;;;18.85;43.24;101746.25;4967395;28;20683;-57
2023/05/17 10:01:27;;;;;;;0.68;0.32;;;;;;;18.74;43.60;101743.47;4962722;28;20038;-58
2023/05/17 10:03:53;;;;;;;1.45;0.20;;;;;;;18.89;42.33;101741.59;4960989;28;20042;-57
2023/05/17 10:06:21;;;;;;;1.48;0.73;;;;;;;18.95;43.03;101753.69;4969103;28;20031;-56
2023/05/17 10:08:55;;;;;;;0.75;0.50;;;;;;;19.15;41.70;101754.94;4962163;28;20208;-57
2023/05/17 10:11:27;;;;;;;0.40;0.30;;;;;;;19.26;40.68;101749.50;4945179;28;20430;-58
2023/05/17 10:14:17;;;;;;;0.17;0.15;;;;;;;19.35;41.13;101748.00;4952471;28;20043;-59
2023/05/17 10:16:46;;;;;;;0.73;0.28;;;;;;;19.19;41.08;101750.25;4969698;28;20069;-56
2023/05/17 10:19:12;;;;;;;0.32;0.32;;;;;;;19.42;40.91;101742.53;4974121;28;20033;-58
2023/05/17 10:21:39;;;;;;;0.22;0.17;;;;;;;19.68;40.67;101752.34;4972025;28;20026;-59
2023/05/17 10:24:06;;;;;;;0.15;0.03;;;;;;;20.04;39.38;101753.13;4967032;28;20266;-57
2023/05/17 10:26:32;;;;;;;1.30;0.10;;;;;;;19.97;38.86;101739.44;4965271;28;20628;-56
2023/05/17 10:29:00;;;;;;;0.77;0.10;;;;;;;19.72;39.91;101762.09;4966694;28;20054;-56
2023/05/17 10:31:32;;;;;;;0.10;0.10;;;;;;;19.58;41.44;101750.38;4961131;28;21770;-57
2023/05/17 10:34:01;;;;;;;;;;;;;;;19.62;41.44;101754.69;4966748;28;20070;-56
2023/05/17 10:36:27;;;;;;;2.92;0.40;;;;;;;19.59;40.68;101755.44;4969096;28;19984;-57
2023/05/17 10:38:53;;;;;;;0.20;0.00;;;;;;;19.72;40.89;101755.88;4959757;28;20043;-58
2023/05/17 10:41:22;;;;;;;0.05;0.00;;;;;;;19.86;40.57;101752.34;4959847;28;20457;-54
2023/05/17 10:43:49;;;;;;;1.20;0.20;;;;;;;20.00;40.70;101755.06;4952499;28;20054;-55
2023/05/17 10:46:16;;;;;;;2.88;0.20;;;;;;;20.46;38.95;101751.13;4969517;28;20426;-53
2023/05/17 10:48:43;;;;;;;0.57;0.20;;;;;;;20.80;38.39;101747.91;4972478;28;20103;-53
2023/05/17 10:51:10;;;;;;;1.10;0.28;;;;;;;20.91;37.82;101748.63;4968076;28;20389;-55
2023/05/17 10:54:17;;;;;;;0.52;0.22;;;;;;;20.90;38.48;101749.81;4952484;28;20031;-58
2023/05/17 10:56:52;;;;;;;0.95;0.10;;;;;;;21.04;39.50;101758.78;4915584;28;20051;-58
2023/05/17 10:59:26;;;;;;;0.75;0.20;;;;;;;21.10;39.27;101748.19;4962049;28;20035;-58
2023/05/17 11:01:59;;;;;;;0.03;0.03;;;;;;;21.26;39.14;101743.00;4969212;28;20034;-57
2023/05/17 11:04:37;;;;;;;0.93;0.22;;;;;;;21.11;39.01;101758.75;4964388;28;20031;-56
2023/05/17 11:07:25;;;;;;;0.68;0.10;;;;;;;20.81;39.27;101769.41;4968479;28;20042;-56
2023/05/17 11:10:05;;;;;;;3.42;0.10;;;;;;;20.46;40.27;101764.81;4963455;28;20050;-53
2023/05/17 11:12:35;;;;;;;1.60;0.40;;;;;;;20.48;40.91;101754.25;4957597;28;20073;-56
2023/05/17 11:15:09;;;;;;;0.10;0.10;;;;;;;20.69;40.52;101765.13;4972275;28;20437;-56
2023/05/17 11:17:45;;;;;;;0.75;0.20;;;;;;;20.39;40.95;101767.56;4974949;28;20074;-52
2023/05/17 11:20:13;;;;;;;1.52;0.20;;;;;;;20.24;40.80;101759.78;4948234;28;20375;-55
2023/05/17 11:22:49;;;;;;;0.10;0.10;;;;;;;20.30;40.63;101760.94;4977466;28;20074;-51
2023/05/17 11:25:17;;;;;;;0.00;0.00;;;;;;;20.18;40.45;101766.78;4960882;28;20030;-56
2023/05/17 11:27:48;;;;;;;0.00;0.00;;;;;;;20.03;40.91;101755.09;4966122;28;20038;-53
2023/05/17 11:30:30;;;;;;;0.98;0.30;;;;;;;19.86;41.60;101763.28;4969213;28;20086;-58